Terminal Aerodrome Forecast
Issued by NWS Quad Cities IA IL

Current Version | Previous Version | Text Only | Print | Product List | Glossary On
Versions: 1 2 3 4 5 6 7 8 9 10 11 12 13 14 15 16 17 18 19 20 21 22 23 24 25 26 27 28 29 30 31 32 33 34 35
000
FTUS43 KDVN 270800 AAA
TAFDBQ
TAF AMD
KDBQ 270821Z 2708/2806 34010KT 6SM BR OVC035
     FM271400 04008KT P6SM SCT015 BKN025
     FM272000 05006KT P6SM SCT030 SCT250
     FM280000 14007KT P6SM SCT250=

USA.gov is the U.S. government's official web portal to all federal, state and local government web resources and services.